sensor_id;sensor_type;location;lat;lon;timestamp;P1;durP1;ratioP1;P2;durP2;ratioP2
72095;SDS011;59968;51.084;16.748;2022-10-20T00:01:28;11.40;;;4.50;;
72095;SDS011;59968;51.084;16.748;2022-10-20T00:03:57;7.60;;;4.10;;
72095;SDS011;59968;51.084;16.748;2022-10-20T00:06:25;7.00;;;3.80;;
72095;SDS011;59968;51.084;16.748;2022-10-20T00:08:56;8.40;;;5.00;;
72095;SDS011;59968;51.084;16.748;2022-10-20T00:11:26;8.10;;;4.90;;
72095;SDS011;59968;51.084;16.748;2022-10-20T00:13:59;11.30;;;5.80;;
72095;SDS011;59968;51.084;16.748;2022-10-20T00:16:33;11.20;;;6.10;;
72095;SDS011;59968;51.084;16.748;2022-10-20T00:19:04;10.80;;;5.90;;
72095;SDS011;59968;51.084;16.748;2022-10-20T00:21:32;10.20;;;5.70;;
72095;SDS011;59968;51.084;16.748;2022-10-20T00:24:01;11.80;;;6.50;;
72095;SDS011;59968;51.084;16.748;2022-10-20T00:26:30;11.60;;;5.20;;
72095;SDS011;59968;51.084;16.748;2022-10-20T00:28:59;9.70;;;5.30;;
72095;SDS011;59968;51.084;16.748;2022-10-20T00:31:28;12.40;;;6.30;;
72095;SDS011;59968;51.084;16.748;2022-10-20T00:33:57;11.40;;;6.80;;
72095;SDS011;59968;51.084;16.748;2022-10-20T00:36:25;10.90;;;6.30;;
72095;SDS011;59968;51.084;16.748;2022-10-20T00:38:59;11.20;;;6.40;;
72095;SDS011;59968;51.084;16.748;2022-10-20T00:41:29;9.50;;;5.80;;
72095;SDS011;59968;51.084;16.748;2022-10-20T00:43:59;10.90;;;5.80;;
72095;SDS011;59968;51.084;16.748;2022-10-20T00:46:49;10.90;;;5.60;;
72095;SDS011;59968;51.084;16.748;2022-10-20T00:49:21;9.90;;;6.00;;
72095;SDS011;59968;51.084;16.748;2022-10-20T00:51:51;9.80;;;5.60;;
72095;SDS011;59968;51.084;16.748;2022-10-20T00:54:22;9.80;;;5.20;;
72095;SDS011;59968;51.084;16.748;2022-10-20T00:56:54;10.70;;;5.40;;
72095;SDS011;59968;51.084;16.748;2022-10-20T00:59:30;11.00;;;6.10;;
72095;SDS011;59968;51.084;16.748;2022-10-20T01:02:02;10.10;;;5.20;;
72095;SDS011;59968;51.084;16.748;2022-10-20T01:04:34;12.40;;;6.10;;
72095;SDS011;59968;51.084;16.748;2022-10-20T01:07:04;12.60;;;6.20;;
72095;SDS011;59968;51.084;16.748;2022-10-20T01:09:33;11.10;;;6.20;;
72095;SDS011;59968;51.084;16.748;2022-10-20T01:15:00;12.30;;;6.50;;
72095;SDS011;59968;51.084;16.748;2022-10-20T01:17:48;14.50;;;6.70;;
72095;SDS011;59968;51.084;16.748;2022-10-20T01:20:35;13.30;;;6.90;;
72095;SDS011;59968;51.084;16.748;2022-10-20T01:34:46;16.30;;;7.70;;
72095;SDS011;59968;51.084;16.748;2022-10-20T01:42:44;9.50;;;5.70;;
72095;SDS011;59968;51.084;16.748;2022-10-20T01:45:17;10.50;;;5.70;;
72095;SDS011;59968;51.084;16.748;2022-10-20T01:47:50;12.40;;;6.10;;
72095;SDS011;59968;51.084;16.748;2022-10-20T01:50:21;14.90;;;6.50;;
72095;SDS011;59968;51.084;16.748;2022-10-20T01:52:57;11.80;;;6.50;;
72095;SDS011;59968;51.084;16.748;2022-10-20T01:55:29;13.30;;;7.30;;
72095;SDS011;59968;51.084;16.748;2022-10-20T02:00:48;11.80;;;6.10;;
72095;SDS011;59968;51.084;16.748;2022-10-20T02:06:44;12.20;;;5.70;;
72095;SDS011;59968;51.084;16.748;2022-10-20T02:12:22;10.10;;;4.90;;
72095;SDS011;59968;51.084;16.748;2022-10-20T02:14:54;8.20;;;4.50;;
72095;SDS011;59968;51.084;16.748;2022-10-20T02:17:24;8.60;;;4.70;;
72095;SDS011;59968;51.084;16.748;2022-10-20T02:19:52;9.50;;;4.60;;
72095;SDS011;59968;51.084;16.748;2022-10-20T02:22:21;9.90;;;4.40;;
72095;SDS011;59968;51.084;16.748;2022-10-20T02:24:50;8.30;;;4.30;;
72095;SDS011;59968;51.084;16.748;2022-10-20T02:27:34;8.00;;;3.70;;
72095;SDS011;59968;51.084;16.748;2022-10-20T02:30:08;6.80;;;4.10;;
72095;SDS011;59968;51.084;16.748;2022-10-20T02:32:40;6.90;;;4.00;;
72095;SDS011;59968;51.084;16.748;2022-10-20T02:35:12;6.30;;;3.60;;
72095;SDS011;59968;51.084;16.748;2022-10-20T02:37:44;7.20;;;3.90;;
72095;SDS011;59968;51.084;16.748;2022-10-20T02:40:12;7.10;;;4.10;;
72095;SDS011;59968;51.084;16.748;2022-10-20T02:42:41;8.10;;;4.10;;
72095;SDS011;59968;51.084;16.748;2022-10-20T02:45:11;8.80;;;4.60;;
72095;SDS011;59968;51.084;16.748;2022-10-20T02:47:39;7.90;;;4.50;;
72095;SDS011;59968;51.084;16.748;2022-10-20T02:50:07;9.80;;;4.20;;
72095;SDS011;59968;51.084;16.748;2022-10-20T02:52:36;8.60;;;4.30;;
72095;SDS011;59968;51.084;16.748;2022-10-20T02:55:07;7.70;;;4.10;;
72095;SDS011;59968;51.084;16.748;2022-10-20T02:57:38;7.30;;;3.70;;
72095;SDS011;59968;51.084;16.748;2022-10-20T03:00:06;6.40;;;3.70;;
72095;SDS011;59968;51.084;16.748;2022-10-20T03:02:35;7.00;;;4.10;;
72095;SDS011;59968;51.084;16.748;2022-10-20T03:05:03;6.70;;;3.70;;
72095;SDS011;59968;51.084;16.748;2022-10-20T03:07:34;6.80;;;4.50;;
72095;SDS011;59968;51.084;16.748;2022-10-20T03:10:03;7.50;;;4.70;;
72095;SDS011;59968;51.084;16.748;2022-10-20T03:12:32;7.10;;;4.30;;
72095;SDS011;59968;51.084;16.748;2022-10-20T03:15:01;8.00;;;4.50;;
72095;SDS011;59968;51.084;16.748;2022-10-20T03:17:32;8.50;;;4.80;;
72095;SDS011;59968;51.084;16.748;2022-10-20T03:20:03;8.70;;;4.50;;
72095;SDS011;59968;51.084;16.748;2022-10-20T03:22:32;10.00;;;5.40;;
72095;SDS011;59968;51.084;16.748;2022-10-20T03:25:00;10.30;;;5.70;;
72095;SDS011;59968;51.084;16.748;2022-10-20T03:27:28;9.70;;;5.40;;
72095;SDS011;59968;51.084;16.748;2022-10-20T03:29:56;9.40;;;4.90;;
72095;SDS011;59968;51.084;16.748;2022-10-20T03:32:25;10.40;;;5.50;;
72095;SDS011;59968;51.084;16.748;2022-10-20T03:34:53;8.90;;;5.10;;
72095;SDS011;59968;51.084;16.748;2022-10-20T03:37:21;9.50;;;5.80;;
72095;SDS011;59968;51.084;16.748;2022-10-20T03:39:49;9.40;;;4.80;;
72095;SDS011;59968;51.084;16.748;2022-10-20T03:42:18;8.90;;;5.40;;
72095;SDS011;59968;51.084;16.748;2022-10-20T03:44:46;10.50;;;5.50;;
72095;SDS011;59968;51.084;16.748;2022-10-20T03:47:17;9.60;;;5.40;;
72095;SDS011;59968;51.084;16.748;2022-10-20T03:49:45;8.80;;;4.60;;
72095;SDS011;59968;51.084;16.748;2022-10-20T03:52:13;9.90;;;5.50;;
72095;SDS011;59968;51.084;16.748;2022-10-20T03:54:41;9.60;;;5.00;;
72095;SDS011;59968;51.084;16.748;2022-10-20T03:57:10;10.10;;;5.50;;
72095;SDS011;59968;51.084;16.748;2022-10-20T03:59:38;10.40;;;5.90;;
72095;SDS011;59968;51.084;16.748;2022-10-20T04:02:06;11.70;;;6.20;;
72095;SDS011;59968;51.084;16.748;2022-10-20T04:04:35;12.50;;;6.40;;
72095;SDS011;59968;51.084;16.748;2022-10-20T04:07:06;10.70;;;5.70;;
72095;SDS011;59968;51.084;16.748;2022-10-20T04:09:34;12.00;;;5.60;;
72095;SDS011;59968;51.084;16.748;2022-10-20T04:12:05;10.70;;;5.40;;
72095;SDS011;59968;51.084;16.748;2022-10-20T04:14:33;11.60;;;6.10;;
72095;SDS011;59968;51.084;16.748;2022-10-20T04:17:01;12.80;;;6.30;;
72095;SDS011;59968;51.084;16.748;2022-10-20T04:19:29;11.70;;;6.70;;
72095;SDS011;59968;51.084;16.748;2022-10-20T04:21:58;13.80;;;7.30;;
72095;SDS011;59968;51.084;16.748;2022-10-20T04:24:26;22.40;;;10.60;;
72095;SDS011;59968;51.084;16.748;2022-10-20T04:26:54;25.50;;;13.20;;
72095;SDS011;59968;51.084;16.748;2022-10-20T04:29:23;21.00;;;9.80;;
72095;SDS011;59968;51.084;16.748;2022-10-20T04:31:51;17.30;;;8.40;;
72095;SDS011;59968;51.084;16.748;2022-10-20T04:34:19;15.60;;;8.30;;
72095;SDS011;59968;51.084;16.748;2022-10-20T04:36:48;16.90;;;9.40;;
72095;SDS011;59968;51.084;16.748;2022-10-20T04:39:17;19.60;;;9.80;;
72095;SDS011;59968;51.084;16.748;2022-10-20T04:41:46;16.70;;;9.40;;
72095;SDS011;59968;51.084;16.748;2022-10-20T04:44:16;16.40;;;8.00;;
72095;SDS011;59968;51.084;16.748;2022-10-20T04:46:44;13.60;;;7.60;;
72095;SDS011;59968;51.084;16.748;2022-10-20T04:49:12;12.50;;;7.00;;
72095;SDS011;59968;51.084;16.748;2022-10-20T04:51:41;13.10;;;7.00;;
72095;SDS011;59968;51.084;16.748;2022-10-20T04:54:09;13.80;;;7.60;;
72095;SDS011;59968;51.084;16.748;2022-10-20T04:56:37;13.70;;;7.10;;
72095;SDS011;59968;51.084;16.748;2022-10-20T04:59:10;13.70;;;7.30;;
72095;SDS011;59968;51.084;16.748;2022-10-20T05:01:40;12.40;;;6.80;;
72095;SDS011;59968;51.084;16.748;2022-10-20T05:04:09;13.10;;;6.90;;
72095;SDS011;59968;51.084;16.748;2022-10-20T05:06:41;14.20;;;7.40;;
72095;SDS011;59968;51.084;16.748;2022-10-20T05:09:10;15.50;;;7.90;;
72095;SDS011;59968;51.084;16.748;2022-10-20T05:11:38;15.50;;;8.50;;
72095;SDS011;59968;51.084;16.748;2022-10-20T05:14:10;18.20;;;9.00;;
72095;SDS011;59968;51.084;16.748;2022-10-20T05:16:38;16.40;;;9.10;;
72095;SDS011;59968;51.084;16.748;2022-10-20T05:19:07;16.10;;;8.20;;
72095;SDS011;59968;51.084;16.748;2022-10-20T05:21:39;21.50;;;11.70;;
72095;SDS011;59968;51.084;16.748;2022-10-20T05:24:13;18.40;;;9.80;;
72095;SDS011;59968;51.084;16.748;2022-10-20T05:26:48;18.10;;;8.70;;
72095;SDS011;59968;51.084;16.748;2022-10-20T05:29:17;17.60;;;8.70;;
72095;SDS011;59968;51.084;16.748;2022-10-20T05:31:45;15.20;;;8.10;;
72095;SDS011;59968;51.084;16.748;2022-10-20T05:34:14;14.40;;;8.20;;
72095;SDS011;59968;51.084;16.748;2022-10-20T05:36:43;16.10;;;8.60;;
72095;SDS011;59968;51.084;16.748;2022-10-20T05:39:13;19.10;;;9.50;;
72095;SDS011;59968;51.084;16.748;2022-10-20T05:41:41;15.50;;;9.10;;
72095;SDS011;59968;51.084;16.748;2022-10-20T05:44:13;15.30;;;8.80;;
72095;SDS011;59968;51.084;16.748;2022-10-20T05:46:43;13.70;;;7.70;;
72095;SDS011;59968;51.084;16.748;2022-10-20T05:49:14;13.50;;;7.50;;
72095;SDS011;59968;51.084;16.748;2022-10-20T05:51:45;15.10;;;7.70;;
72095;SDS011;59968;51.084;16.748;2022-10-20T05:54:15;17.50;;;7.70;;
72095;SDS011;59968;51.084;16.748;2022-10-20T05:56:43;14.90;;;8.10;;
72095;SDS011;59968;51.084;16.748;2022-10-20T05:59:12;13.80;;;7.30;;
72095;SDS011;59968;51.084;16.748;2022-10-20T06:01:40;13.00;;;7.30;;
72095;SDS011;59968;51.084;16.748;2022-10-20T06:04:20;14.70;;;8.00;;
72095;SDS011;59968;51.084;16.748;2022-10-20T06:06:50;14.80;;;7.70;;
72095;SDS011;59968;51.084;16.748;2022-10-20T06:09:20;13.60;;;7.40;;
72095;SDS011;59968;51.084;16.748;2022-10-20T06:11:52;13.40;;;7.60;;
72095;SDS011;59968;51.084;16.748;2022-10-20T06:14:20;15.10;;;8.30;;
72095;SDS011;59968;51.084;16.748;2022-10-20T06:16:50;14.10;;;7.70;;
72095;SDS011;59968;51.084;16.748;2022-10-20T06:19:19;15.10;;;7.70;;
72095;SDS011;59968;51.084;16.748;2022-10-20T06:21:49;15.80;;;7.80;;
72095;SDS011;59968;51.084;16.748;2022-10-20T06:24:19;15.20;;;7.50;;
72095;SDS011;59968;51.084;16.748;2022-10-20T06:26:50;13.50;;;7.40;;
72095;SDS011;59968;51.084;16.748;2022-10-20T06:29:19;15.00;;;8.00;;
72095;SDS011;59968;51.084;16.748;2022-10-20T06:31:49;14.20;;;7.20;;
72095;SDS011;59968;51.084;16.748;2022-10-20T06:34:20;12.10;;;7.10;;
72095;SDS011;59968;51.084;16.748;2022-10-20T06:36:50;14.40;;;7.40;;
72095;SDS011;59968;51.084;16.748;2022-10-20T06:39:20;15.40;;;6.80;;
72095;SDS011;59968;51.084;16.748;2022-10-20T06:41:59;14.90;;;7.80;;
72095;SDS011;59968;51.084;16.748;2022-10-20T06:44:31;12.70;;;7.20;;
72095;SDS011;59968;51.084;16.748;2022-10-20T06:47:02;14.30;;;7.90;;
72095;SDS011;59968;51.084;16.748;2022-10-20T06:49:34;13.50;;;6.90;;
72095;SDS011;59968;51.084;16.748;2022-10-20T06:52:03;14.10;;;7.00;;
72095;SDS011;59968;51.084;16.748;2022-10-20T06:54:35;14.50;;;6.30;;
72095;SDS011;59968;51.084;16.748;2022-10-20T06:57:07;13.70;;;7.40;;
72095;SDS011;59968;51.084;16.748;2022-10-20T06:59:36;11.50;;;5.70;;
72095;SDS011;59968;51.084;16.748;2022-10-20T07:02:07;12.80;;;7.20;;
72095;SDS011;59968;51.084;16.748;2022-10-20T07:04:41;14.80;;;7.10;;
72095;SDS011;59968;51.084;16.748;2022-10-20T07:07:09;16.50;;;8.40;;
72095;SDS011;59968;51.084;16.748;2022-10-20T07:09:40;13.80;;;7.30;;
72095;SDS011;59968;51.084;16.748;2022-10-20T07:12:11;14.20;;;8.00;;
72095;SDS011;59968;51.084;16.748;2022-10-20T07:14:39;13.00;;;7.00;;
72095;SDS011;59968;51.084;16.748;2022-10-20T07:17:08;13.70;;;7.90;;
72095;SDS011;59968;51.084;16.748;2022-10-20T07:19:36;12.20;;;6.60;;
72095;SDS011;59968;51.084;16.748;2022-10-20T07:22:05;14.10;;;7.90;;
72095;SDS011;59968;51.084;16.748;2022-10-20T07:24:33;14.80;;;6.90;;
72095;SDS011;59968;51.084;16.748;2022-10-20T07:27:04;14.20;;;7.80;;
72095;SDS011;59968;51.084;16.748;2022-10-20T07:29:33;13.50;;;7.70;;
72095;SDS011;59968;51.084;16.748;2022-10-20T07:32:01;15.70;;;7.90;;
72095;SDS011;59968;51.084;16.748;2022-10-20T07:34:30;15.60;;;8.30;;
72095;SDS011;59968;51.084;16.748;2022-10-20T07:36:59;16.30;;;8.20;;
72095;SDS011;59968;51.084;16.748;2022-10-20T07:39:30;14.00;;;7.20;;
72095;SDS011;59968;51.084;16.748;2022-10-20T07:42:02;13.40;;;7.10;;
72095;SDS011;59968;51.084;16.748;2022-10-20T07:44:30;12.60;;;6.60;;
72095;SDS011;59968;51.084;16.748;2022-10-20T07:46:58;8.40;;;4.50;;
72095;SDS011;59968;51.084;16.748;2022-10-20T07:49:30;11.30;;;5.50;;
72095;SDS011;59968;51.084;16.748;2022-10-20T07:52:13;13.60;;;7.90;;
72095;SDS011;59968;51.084;16.748;2022-10-20T07:54:43;11.80;;;6.90;;
72095;SDS011;59968;51.084;16.748;2022-10-20T07:57:15;16.20;;;8.00;;
72095;SDS011;59968;51.084;16.748;2022-10-20T07:59:43;12.00;;;6.30;;
72095;SDS011;59968;51.084;16.748;2022-10-20T08:02:12;13.00;;;5.60;;
72095;SDS011;59968;51.084;16.748;2022-10-20T08:04:43;12.10;;;6.30;;
72095;SDS011;59968;51.084;16.748;2022-10-20T08:07:12;12.70;;;7.50;;
72095;SDS011;59968;51.084;16.748;2022-10-20T08:09:47;11.80;;;6.40;;
72095;SDS011;59968;51.084;16.748;2022-10-20T08:12:15;15.90;;;8.30;;
72095;SDS011;59968;51.084;16.748;2022-10-20T08:14:43;11.80;;;6.20;;
72095;SDS011;59968;51.084;16.748;2022-10-20T08:17:19;10.90;;;5.20;;
72095;SDS011;59968;51.084;16.748;2022-10-20T08:19:48;13.20;;;7.10;;
72095;SDS011;59968;51.084;16.748;2022-10-20T08:22:30;12.80;;;7.00;;
72095;SDS011;59968;51.084;16.748;2022-10-20T08:24:58;14.60;;;8.40;;
72095;SDS011;59968;51.084;16.748;2022-10-20T08:27:26;16.00;;;8.00;;
72095;SDS011;59968;51.084;16.748;2022-10-20T08:29:55;16.50;;;8.40;;
72095;SDS011;59968;51.084;16.748;2022-10-20T08:32:43;15.10;;;7.70;;
72095;SDS011;59968;51.084;16.748;2022-10-20T08:35:11;15.30;;;8.30;;
72095;SDS011;59968;51.084;16.748;2022-10-20T08:37:40;16.10;;;8.40;;
72095;SDS011;59968;51.084;16.748;2022-10-20T08:40:11;13.10;;;7.50;;
72095;SDS011;59968;51.084;16.748;2022-10-20T08:42:45;17.30;;;9.60;;
72095;SDS011;59968;51.084;16.748;2022-10-20T08:45:19;18.40;;;10.40;;
72095;SDS011;59968;51.084;16.748;2022-10-20T08:47:51;23.50;;;12.40;;
72095;SDS011;59968;51.084;16.748;2022-10-20T08:50:21;18.90;;;9.60;;
72095;SDS011;59968;51.084;16.748;2022-10-20T08:52:52;16.90;;;9.00;;
72095;SDS011;59968;51.084;16.748;2022-10-20T08:55:27;21.20;;;10.80;;
72095;SDS011;59968;51.084;16.748;2022-10-20T09:00:35;18.70;;;9.70;;
72095;SDS011;59968;51.084;16.748;2022-10-20T09:05:45;17.60;;;9.20;;
72095;SDS011;59968;51.084;16.748;2022-10-20T09:08:16;19.10;;;9.80;;
72095;SDS011;59968;51.084;16.748;2022-10-20T09:10:48;20.30;;;11.10;;
72095;SDS011;59968;51.084;16.748;2022-10-20T09:13:21;21.00;;;10.60;;
72095;SDS011;59968;51.084;16.748;2022-10-20T09:15:56;19.30;;;10.40;;
72095;SDS011;59968;51.084;16.748;2022-10-20T09:18:31;22.10;;;12.10;;
72095;SDS011;59968;51.084;16.748;2022-10-20T09:21:06;22.40;;;11.80;;
72095;SDS011;59968;51.084;16.748;2022-10-20T09:23:44;22.00;;;10.30;;
72095;SDS011;59968;51.084;16.748;2022-10-20T09:26:39;16.20;;;8.70;;
72095;SDS011;59968;51.084;16.748;2022-10-20T09:29:34;19.80;;;10.50;;
72095;SDS011;59968;51.084;16.748;2022-10-20T09:32:15;20.00;;;11.00;;
72095;SDS011;59968;51.084;16.748;2022-10-20T09:35:26;17.20;;;10.10;;
72095;SDS011;59968;51.084;16.748;2022-10-20T09:38:03;20.00;;;11.00;;
72095;SDS011;59968;51.084;16.748;2022-10-20T09:40:52;12.00;;;6.20;;
72095;SDS011;59968;51.084;16.748;2022-10-20T09:43:25;10.80;;;6.00;;
72095;SDS011;59968;51.084;16.748;2022-10-20T09:45:59;11.20;;;6.40;;
72095;SDS011;59968;51.084;16.748;2022-10-20T09:48:33;16.20;;;8.50;;
72095;SDS011;59968;51.084;16.748;2022-10-20T09:51:06;14.50;;;8.40;;
72095;SDS011;59968;51.084;16.748;2022-10-20T09:56:37;15.90;;;8.90;;
72095;SDS011;59968;51.084;16.748;2022-10-20T09:59:54;14.40;;;8.80;;
72095;SDS011;59968;51.084;16.748;2022-10-20T10:04:44;13.40;;;6.90;;
72095;SDS011;59968;51.084;16.748;2022-10-20T10:07:36;10.60;;;6.20;;
72095;SDS011;59968;51.084;16.748;2022-10-20T10:10:05;10.20;;;5.90;;
72095;SDS011;59968;51.084;16.748;2022-10-20T10:12:55;9.90;;;6.30;;
72095;SDS011;59968;51.084;16.748;2022-10-20T10:15:32;11.00;;;6.70;;
72095;SDS011;59968;51.084;16.748;2022-10-20T10:18:11;11.30;;;6.90;;
72095;SDS011;59968;51.084;16.748;2022-10-20T10:20:42;7.70;;;4.50;;
72095;SDS011;59968;51.084;16.748;2022-10-20T10:23:18;6.50;;;3.90;;
72095;SDS011;59968;51.084;16.748;2022-10-20T10:25:49;10.20;;;5.40;;
72095;SDS011;59968;51.084;16.748;2022-10-20T10:30:55;8.10;;;5.20;;
72095;SDS011;59968;51.084;16.748;2022-10-20T10:33:44;8.10;;;4.20;;
72095;SDS011;59968;51.084;16.748;2022-10-20T10:38:47;5.50;;;2.90;;
72095;SDS011;59968;51.084;16.748;2022-10-20T10:46:42;5.80;;;3.40;;
72095;SDS011;59968;51.084;16.748;2022-10-20T10:55:09;5.90;;;3.10;;
72095;SDS011;59968;51.084;16.748;2022-10-20T10:58:05;7.00;;;3.00;;
72095;SDS011;59968;51.084;16.748;2022-10-20T11:00:45;4.50;;;2.60;;
72095;SDS011;59968;51.084;16.748;2022-10-20T11:05:51;5.60;;;2.70;;
72095;SDS011;59968;51.084;16.748;2022-10-20T11:08:40;5.70;;;3.00;;
72095;SDS011;59968;51.084;16.748;2022-10-20T11:11:23;4.60;;;2.50;;
72095;SDS011;59968;51.084;16.748;2022-10-20T11:22:11;4.70;;;2.50;;
72095;SDS011;59968;51.084;16.748;2022-10-20T11:25:20;6.30;;;2.40;;
72095;SDS011;59968;51.084;16.748;2022-10-20T11:28:30;5.90;;;2.40;;
72095;SDS011;59968;51.084;16.748;2022-10-20T11:31:27;5.40;;;2.60;;
72095;SDS011;59968;51.084;16.748;2022-10-20T11:34:24;6.60;;;2.60;;
72095;SDS011;59968;51.084;16.748;2022-10-20T11:37:05;6.20;;;2.50;;
72095;SDS011;59968;51.084;16.748;2022-10-20T11:45:47;6.80;;;2.90;;
72095;SDS011;59968;51.084;16.748;2022-10-20T12:19:32;4.90;;;2.10;;
72095;SDS011;59968;51.084;16.748;2022-10-20T12:22:36;4.20;;;2.50;;
72095;SDS011;59968;51.084;16.748;2022-10-20T12:27:26;4.70;;;2.50;;
72095;SDS011;59968;51.084;16.748;2022-10-20T12:30:02;6.30;;;2.70;;
72095;SDS011;59968;51.084;16.748;2022-10-20T12:32:56;5.90;;;2.60;;
72095;SDS011;59968;51.084;16.748;2022-10-20T12:35:56;6.00;;;2.80;;
72095;SDS011;59968;51.084;16.748;2022-10-20T12:38:26;4.30;;;2.70;;
72095;SDS011;59968;51.084;16.748;2022-10-20T12:40:58;4.90;;;2.10;;
72095;SDS011;59968;51.084;16.748;2022-10-20T12:46:17;4.50;;;2.20;;
72095;SDS011;59968;51.084;16.748;2022-10-20T12:48:49;5.20;;;2.90;;
72095;SDS011;59968;51.084;16.748;2022-10-20T12:51:47;5.60;;;3.20;;
72095;SDS011;59968;51.084;16.748;2022-10-20T12:54:20;6.30;;;3.10;;
72095;SDS011;59968;51.084;16.748;2022-10-20T12:57:36;6.00;;;3.00;;
72095;SDS011;59968;51.084;16.748;2022-10-20T13:20:58;9.10;;;3.40;;
72095;SDS011;59968;51.084;16.748;2022-10-20T13:23:41;7.50;;;3.50;;
72095;SDS011;59968;51.084;16.748;2022-10-20T13:28:50;7.30;;;3.40;;
72095;SDS011;59968;51.084;16.748;2022-10-20T13:33:57;6.20;;;3.10;;
72095;SDS011;59968;51.084;16.748;2022-10-20T13:39:30;6.50;;;3.10;;
72095;SDS011;59968;51.084;16.748;2022-10-20T13:45:06;5.90;;;3.30;;
72095;SDS011;59968;51.084;16.748;2022-10-20T13:48:04;6.70;;;3.40;;
72095;SDS011;59968;51.084;16.748;2022-10-20T13:50:44;7.60;;;3.40;;
72095;SDS011;59968;51.084;16.748;2022-10-20T13:58:34;5.60;;;3.20;;
72095;SDS011;59968;51.084;16.748;2022-10-20T14:01:05;7.70;;;3.90;;
72095;SDS011;59968;51.084;16.748;2022-10-20T14:03:45;6.90;;;3.40;;
72095;SDS011;59968;51.084;16.748;2022-10-20T14:09:20;7.40;;;3.90;;
72095;SDS011;59968;51.084;16.748;2022-10-20T14:11:53;9.10;;;3.90;;
72095;SDS011;59968;51.084;16.748;2022-10-20T14:14:30;6.30;;;3.40;;
72095;SDS011;59968;51.084;16.748;2022-10-20T14:17:00;7.20;;;3.60;;
72095;SDS011;59968;51.084;16.748;2022-10-20T14:19:31;7.30;;;3.70;;
72095;SDS011;59968;51.084;16.748;2022-10-20T14:22:09;7.10;;;4.50;;
72095;SDS011;59968;51.084;16.748;2022-10-20T14:24:45;9.50;;;4.60;;
72095;SDS011;59968;51.084;16.748;2022-10-20T14:27:26;8.70;;;4.00;;
72095;SDS011;59968;51.084;16.748;2022-10-20T14:29:58;9.60;;;4.60;;
72095;SDS011;59968;51.084;16.748;2022-10-20T14:32:38;8.70;;;4.10;;
72095;SDS011;59968;51.084;16.748;2022-10-20T14:35:27;6.70;;;4.50;;
72095;SDS011;59968;51.084;16.748;2022-10-20T14:38:02;7.50;;;4.00;;
72095;SDS011;59968;51.084;16.748;2022-10-20T14:40:50;8.40;;;4.60;;
72095;SDS011;59968;51.084;16.748;2022-10-20T14:43:23;7.80;;;4.00;;
72095;SDS011;59968;51.084;16.748;2022-10-20T14:46:05;9.10;;;4.60;;
72095;SDS011;59968;51.084;16.748;2022-10-20T14:48:45;7.70;;;4.30;;
72095;SDS011;59968;51.084;16.748;2022-10-20T14:51:35;8.90;;;4.70;;
72095;SDS011;59968;51.084;16.748;2022-10-20T14:59:22;8.80;;;4.60;;
72095;SDS011;59968;51.084;16.748;2022-10-20T15:02:13;9.60;;;5.10;;
72095;SDS011;59968;51.084;16.748;2022-10-20T15:04:49;9.30;;;4.30;;
72095;SDS011;59968;51.084;16.748;2022-10-20T15:07:25;9.20;;;4.80;;
72095;SDS011;59968;51.084;16.748;2022-10-20T15:10:06;9.40;;;5.10;;
72095;SDS011;59968;51.084;16.748;2022-10-20T15:12:45;9.50;;;4.80;;
72095;SDS011;59968;51.084;16.748;2022-10-20T15:15:24;10.10;;;5.80;;
72095;SDS011;59968;51.084;16.748;2022-10-20T15:18:14;9.00;;;5.10;;
72095;SDS011;59968;51.084;16.748;2022-10-20T15:20:53;9.20;;;5.20;;
72095;SDS011;59968;51.084;16.748;2022-10-20T15:23:27;11.50;;;5.60;;
72095;SDS011;59968;51.084;16.748;2022-10-20T15:26:09;9.80;;;5.70;;
72095;SDS011;59968;51.084;16.748;2022-10-20T15:28:42;10.60;;;5.90;;
72095;SDS011;59968;51.084;16.748;2022-10-20T15:33:56;9.50;;;5.30;;
72095;SDS011;59968;51.084;16.748;2022-10-20T15:36:26;10.20;;;5.20;;
72095;SDS011;59968;51.084;16.748;2022-10-20T15:39:03;8.00;;;5.10;;
72095;SDS011;59968;51.084;16.748;2022-10-20T15:41:37;11.70;;;5.30;;
72095;SDS011;59968;51.084;16.748;2022-10-20T15:44:16;10.30;;;5.50;;
72095;SDS011;59968;51.084;16.748;2022-10-20T15:46:51;11.60;;;5.30;;
72095;SDS011;59968;51.084;16.748;2022-10-20T15:49:22;11.70;;;5.50;;
72095;SDS011;59968;51.084;16.748;2022-10-20T15:51:57;11.00;;;5.80;;
72095;SDS011;59968;51.084;16.748;2022-10-20T15:54:26;9.80;;;5.10;;
72095;SDS011;59968;51.084;16.748;2022-10-20T15:56:59;10.00;;;4.90;;
72095;SDS011;59968;51.084;16.748;2022-10-20T15:59:27;10.20;;;5.30;;
72095;SDS011;59968;51.084;16.748;2022-10-20T16:01:56;11.00;;;5.00;;
72095;SDS011;59968;51.084;16.748;2022-10-20T16:04:25;10.00;;;4.60;;
72095;SDS011;59968;51.084;16.748;2022-10-20T16:06:55;8.70;;;5.10;;
72095;SDS011;59968;51.084;16.748;2022-10-20T16:09:27;10.40;;;5.00;;
72095;SDS011;59968;51.084;16.748;2022-10-20T16:12:02;11.70;;;4.90;;
72095;SDS011;59968;51.084;16.748;2022-10-20T16:14:32;9.80;;;4.50;;
72095;SDS011;59968;51.084;16.748;2022-10-20T16:17:01;8.40;;;4.10;;
72095;SDS011;59968;51.084;16.748;2022-10-20T16:19:32;8.30;;;4.20;;
72095;SDS011;59968;51.084;16.748;2022-10-20T16:22:04;9.50;;;4.60;;
72095;SDS011;59968;51.084;16.748;2022-10-20T16:24:33;7.80;;;4.30;;
72095;SDS011;59968;51.084;16.748;2022-10-20T16:27:02;11.20;;;5.10;;
72095;SDS011;59968;51.084;16.748;2022-10-20T16:29:34;10.30;;;4.90;;
72095;SDS011;59968;51.084;16.748;2022-10-20T16:32:03;9.80;;;4.50;;
72095;SDS011;59968;51.084;16.748;2022-10-20T16:34:32;9.80;;;4.80;;
72095;SDS011;59968;51.084;16.748;2022-10-20T16:37:04;9.30;;;4.70;;
72095;SDS011;59968;51.084;16.748;2022-10-20T16:39:34;8.70;;;4.50;;
72095;SDS011;59968;51.084;16.748;2022-10-20T16:42:08;10.80;;;5.00;;
72095;SDS011;59968;51.084;16.748;2022-10-20T16:44:42;10.10;;;5.50;;
72095;SDS011;59968;51.084;16.748;2022-10-20T16:47:18;9.40;;;4.40;;
72095;SDS011;59968;51.084;16.748;2022-10-20T16:49:48;10.50;;;4.80;;
72095;SDS011;59968;51.084;16.748;2022-10-20T16:52:18;10.40;;;5.00;;
72095;SDS011;59968;51.084;16.748;2022-10-20T16:54:49;11.10;;;4.50;;
72095;SDS011;59968;51.084;16.748;2022-10-20T16:57:18;10.50;;;5.30;;
72095;SDS011;59968;51.084;16.748;2022-10-20T16:59:46;11.50;;;5.30;;
72095;SDS011;59968;51.084;16.748;2022-10-20T17:05:18;10.60;;;5.70;;
72095;SDS011;59968;51.084;16.748;2022-10-20T17:07:53;11.40;;;5.10;;
72095;SDS011;59968;51.084;16.748;2022-10-20T17:10:24;11.80;;;5.20;;
72095;SDS011;59968;51.084;16.748;2022-10-20T17:12:57;13.70;;;6.10;;
72095;SDS011;59968;51.084;16.748;2022-10-20T17:15:32;13.50;;;5.90;;
72095;SDS011;59968;51.084;16.748;2022-10-20T17:18:03;11.00;;;4.90;;
72095;SDS011;59968;51.084;16.748;2022-10-20T17:20:39;12.40;;;5.40;;
72095;SDS011;59968;51.084;16.748;2022-10-20T17:23:09;13.10;;;6.30;;
72095;SDS011;59968;51.084;16.748;2022-10-20T17:25:46;12.70;;;6.30;;
72095;SDS011;59968;51.084;16.748;2022-10-20T17:28:18;13.30;;;6.10;;
72095;SDS011;59968;51.084;16.748;2022-10-20T17:30:50;14.30;;;6.30;;
72095;SDS011;59968;51.084;16.748;2022-10-20T17:33:28;12.90;;;6.10;;
72095;SDS011;59968;51.084;16.748;2022-10-20T17:36:11;14.70;;;6.80;;
72095;SDS011;59968;51.084;16.748;2022-10-20T17:38:43;15.30;;;6.70;;
72095;SDS011;59968;51.084;16.748;2022-10-20T17:41:17;17.90;;;6.80;;
72095;SDS011;59968;51.084;16.748;2022-10-20T17:43:58;16.30;;;7.80;;